Time,TemperatureF,DewpointF,PressureIn,WindDirection,WindDirectionDegrees,WindSpeedMPH,WindSpeedGustMPH,Humidity,HourlyPrecipIn,Conditions,Clouds,dailyrainin,SoftwareType,DateUTC
2013-05-26 00:01:00,41.5,39.1,30.06,NNW,338,2.4,2.4,91,0.14,,SKC,0.00,VWS V13.01,2013-05-26 04:01:00,
2013-05-26 00:02:00,41.5,39.1,30.06,WNW,294,7.6,7.6,91,0.14,,SKC,0.00,VWS V13.01,2013-05-26 04:02:00,
2013-05-26 00:07:00,41.5,39.1,30.06,WNW,294,9.8,9.8,91,0.10,,SKC,0.00,VWS V13.01,2013-05-26 04:07:00,
2013-05-26 00:12:00,41.5,39.1,30.05,NNE,24,10.2,10.2,91,0.10,,SKC,0.00,VWS V13.01,2013-05-26 04:12:00,
2013-05-26 00:17:00,41.5,39.1,30.05,NNW,338,4.2,4.2,91,0.08,,SKC,0.00,VWS V13.01,2013-05-26 04:17:00,
2013-05-26 00:22:00,41.5,39.1,30.05,ENE,68,8.2,8.2,91,0.06,,SKC,0.00,VWS V13.01,2013-05-26 04:22:00,
2013-05-26 00:27:00,41.5,39.1,30.05,NNE,24,6.0,6.0,91,0.06,,SKC,0.02,VWS V13.01,2013-05-26 04:27:00,
2013-05-26 00:32:00,41.7,39.3,30.05,WNW,294,10.2,10.2,91,0.04,,SKC,0.02,VWS V13.01,2013-05-26 04:32:00,
2013-05-26 00:37:00,41.7,39.3,30.05,ENE,68,5.8,5.8,91,0.04,,SKC,0.02,VWS V13.01,2013-05-26 04:37:00,
2013-05-26 00:42:00,41.7,39.3,30.05,ENE,68,5.1,5.1,91,0.06,,SKC,0.04,VWS V13.01,2013-05-26 04:42:00,
2013-05-26 00:47:00,41.7,39.3,30.04,NW,316,4.0,4.0,91,0.04,,SKC,0.04,VWS V13.01,2013-05-26 04:47:00,
2013-05-26 00:52:00,41.7,39.3,30.04,NW,316,9.1,9.1,91,0.04,,SKC,0.04,VWS V13.01,2013-05-26 04:52:00,
2013-05-26 00:57:00,41.9,39.5,30.04,NW,316,7.1,7.1,91,0.04,,SKC,0.04,VWS V13.01,2013-05-26 04:57:00,
2013-05-26 01:02:00,41.9,39.5,30.04,NNW,338,8.0,8.0,91,0.06,,SKC,0.06,VWS V13.01,2013-05-26 05:02:00,
2013-05-26 01:07:00,41.9,39.5,30.04,NW,316,3.3,3.3,91,0.06,,SKC,0.06,VWS V13.01,2013-05-26 05:07:00,
2013-05-26 01:12:00,41.9,39.5,30.04,WNW,294,4.2,4.2,91,0.10,,SKC,0.10,VWS V13.01,2013-05-26 05:12:00,
2013-05-26 01:17:00,41.9,39.5,30.04,North,1,5.1,5.1,91,0.12,,SKC,0.12,VWS V13.01,2013-05-26 05:17:00,
2013-05-26 01:22:00,41.7,39.3,30.03,North,1,1.5,1.5,91,0.12,,SKC,1.18,VWS V13.01,2013-05-26 05:22:00,
2013-05-26 01:27:00,41.7,39.3,30.03,NNW,338,1.3,1.3,91,0.12,,SKC,0.14,VWS V13.01,2013-05-26 05:27:00,
2013-05-26 01:32:00,41.7,39.3,30.03,NNW,338,0.0,0.0,91,0.12,,SKC,0.14,VWS V13.01,2013-05-26 05:32:00,
2013-05-26 01:37:00,41.7,39.3,30.03,NNE,24,8.0,8.0,91,0.14,,SKC,0.16,VWS V13.01,2013-05-26 05:37:00,
2013-05-26 01:42:00,41.7,39.3,30.03,NW,316,10.0,10.0,91,0.16,,SKC,0.20,VWS V13.01,2013-05-26 05:42:00,
2013-05-26 01:47:00,41.7,39.3,30.03,NW,316,1.7,1.7,91,0.18,,SKC,0.22,VWS V13.01,2013-05-26 05:47:00,
2013-05-26 01:52:00,41.7,39.3,30.03,NNW,338,2.9,2.9,91,0.20,,SKC,0.24,VWS V13.01,2013-05-26 05:52:00,
2013-05-26 01:57:00,41.5,39.1,30.03,North,1,6.4,6.4,91,0.20,,SKC,0.26,VWS V13.01,2013-05-26 05:57:00,
2013-05-26 02:02:00,41.7,39.3,30.03,WNW,294,1.3,1.3,91,0.22,,SKC,0.28,VWS V13.01,2013-05-26 06:02:00,
2013-05-26 02:07:00,41.7,39.3,30.03,WNW,294,0.0,0.0,91,0.22,,SKC,0.28,VWS V13.01,2013-05-26 06:07:00,
2013-05-26 02:12:00,41.7,39.5,30.03,NNE,24,5.1,6.7,92,0.20,,SKC,0.30,VWS V13.01,2013-05-26 06:12:00,
2013-05-26 02:17:00,41.7,39.5,30.03,NNE,24,2.6,2.6,92,0.20,,SKC,0.32,VWS V13.01,2013-05-26 06:17:00,
2013-05-26 02:22:00,41.7,39.3,30.03,NE,46,5.3,5.3,91,0.20,,SKC,0.32,VWS V13.01,2013-05-26 06:22:00,
2013-05-26 02:27:00,41.5,39.1,30.03,ESE,114,2.4,2.4,91,0.20,,SKC,0.35,VWS V13.01,2013-05-26 06:27:00,
2013-05-26 02:32:00,41.5,39.1,30.03,NE,46,0.0,0.0,91,0.18,,SKC,0.35,VWS V13.01,2013-05-26 06:32:00,
2013-05-26 02:37:00,41.5,39.1,30.03,NNE,24,1.7,1.7,91,0.16,,SKC,0.35,VWS V13.01,2013-05-26 06:37:00,
2013-05-26 02:42:00,41.3,38.9,30.03,North,1,5.3,5.8,91,0.16,,SKC,0.37,VWS V13.01,2013-05-26 06:42:00,
2013-05-26 02:47:00,41.5,39.1,30.02,West,271,1.3,1.3,91,0.12,,SKC,0.37,VWS V13.01,2013-05-26 06:47:00,
2013-05-26 02:52:00,41.5,39.1,30.02,East,91,0.0,0.0,91,0.14,,SKC,0.39,VWS V13.01,2013-05-26 06:52:00,
2013-05-26 02:57:00,41.5,39.1,30.02,NNW,338,6.9,6.9,91,0.10,,SKC,0.39,VWS V13.01,2013-05-26 06:57:00,
2013-05-26 03:02:00,41.7,39.3,30.02,ENE,68,7.1,7.1,91,0.10,,SKC,0.39,VWS V13.01,2013-05-26 07:02:00,
2013-05-26 03:07:00,41.7,39.3,30.02,NNW,338,2.2,2.2,91,0.08,,SKC,0.39,VWS V13.01,2013-05-26 07:07:00,
2013-05-26 03:12:00,41.7,39.3,30.02,ENE,68,8.2,8.2,91,0.10,,SKC,0.41,VWS V13.01,2013-05-26 07:12:00,
2013-05-26 03:17:00,41.5,39.1,30.02,NW,316,6.9,6.9,91,0.08,,SKC,0.41,VWS V13.01,2013-05-26 07:17:00,
2013-05-26 03:22:00,41.5,39.1,30.02,WNW,294,6.9,6.9,91,0.08,,SKC,0.41,VWS V13.01,2013-05-26 07:22:00,
2013-05-26 03:27:00,41.5,39.1,30.02,NE,46,4.9,4.9,91,0.08,,SKC,0.43,VWS V13.01,2013-05-26 07:27:00,
2013-05-26 03:32:00,41.5,39.1,30.02,West,271,4.2,4.2,91,0.08,,SKC,0.43,VWS V13.01,2013-05-26 07:32:00,
2013-05-26 03:37:00,41.3,38.9,30.02,NNW,338,1.3,1.3,91,0.10,,SKC,0.44,VWS V13.01,2013-05-26 07:37:00,
2013-05-26 03:42:00,41.3,38.9,30.02,North,1,0.8,0.8,91,0.10,,SKC,0.47,VWS V13.01,2013-05-26 07:42:00,
2013-05-26 03:47:00,41.3,38.9,30.02,ENE,68,1.1,1.1,91,0.08,,SKC,0.47,VWS V13.01,2013-05-26 07:47:00,
2013-05-26 03:52:00,41.5,39.1,30.01,NNE,24,6.0,6.4,91,0.10,,SKC,0.49,VWS V13.01,2013-05-26 07:52:00,
2013-05-26 03:57:00,41.5,39.1,30.01,NNW,338,0.0,0.0,91,0.10,,SKC,0.49,VWS V13.01,2013-05-26 07:57:00,
2013-05-26 04:02:00,41.5,39.3,30.02,NNW,338,0.6,0.6,92,0.10,,SKC,0.49,VWS V13.01,2013-05-26 08:02:00,
2013-05-26 04:07:00,41.5,39.3,30.02,NNW,338,4.0,4.0,92,0.10,,SKC,0.51,VWS V13.01,2013-05-26 08:07:00,
2013-05-26 04:12:00,41.5,39.3,30.02,ENE,68,3.1,5.1,92,0.10,,SKC,0.51,VWS V13.01,2013-05-26 08:12:00,
2013-05-26 04:17:00,41.5,39.3,30.02,NNE,24,0.8,0.8,92,0.10,,SKC,0.51,VWS V13.01,2013-05-26 08:17:00,
2013-05-26 04:22:00,41.5,39.3,30.02,North,1,2.9,2.9,92,0.10,,SKC,0.51,VWS V13.01,2013-05-26 08:22:00,
2013-05-26 04:27:00,41.3,39.2,30.02,NE,46,0.0,0.2,92,0.10,,SKC,0.53,VWS V13.01,2013-05-26 08:27:00,
2013-05-26 04:32:00,41.5,39.3,30.02,NE,46,1.3,1.3,92,0.08,,SKC,0.53,VWS V13.01,2013-05-26 08:32:00,
2013-05-26 04:37:00,41.5,39.3,30.02,WSW,248,1.7,1.7,92,0.08,,SKC,0.53,VWS V13.01,2013-05-26 08:37:00,
2013-05-26 04:42:00,41.5,39.3,30.02,NNW,338,4.0,6.0,92,0.06,,SKC,0.53,VWS V13.01,2013-05-26 08:42:00,
2013-05-26 04:47:00,41.7,39.5,30.02,NNW,338,5.1,5.1,92,0.04,,SKC,0.53,VWS V13.01,2013-05-26 08:47:00,
2013-05-26 04:52:00,41.7,39.5,30.02,NNW,338,5.5,6.0,92,0.04,,SKC,0.53,VWS V13.01,2013-05-26 08:52:00,
2013-05-26 04:57:00,41.7,39.3,30.02,NNW,338,3.5,3.5,91,0.04,,SKC,0.53,VWS V13.01,2013-05-26 08:57:00,
2013-05-26 05:02:00,41.7,39.3,30.02,NW,316,0.0,0.0,91,0.06,,SKC,0.55,VWS V13.01,2013-05-26 09:02:00,
2013-05-26 05:07:00,41.7,39.3,30.02,NE,46,4.0,4.0,91,0.04,,SKC,0.55,VWS V13.01,2013-05-26 09:07:00,
2013-05-26 05:12:00,41.7,39.3,30.02,East,91,2.4,2.4,91,0.04,,SKC,0.55,VWS V13.01,2013-05-26 09:12:00,
2013-05-26 05:17:00,41.7,39.3,30.02,NE,46,0.4,0.4,91,0.04,,SKC,0.55,VWS V13.01,2013-05-26 09:17:00,
2013-05-26 05:22:00,41.9,39.5,30.02,NW,316,0.0,0.0,91,0.04,,SKC,0.55,VWS V13.01,2013-05-26 09:22:00,
2013-05-26 05:27:00,41.9,39.5,30.02,NNW,338,0.0,3.5,91,0.02,,SKC,0.55,VWS V13.01,2013-05-26 09:27:00,
2013-05-26 05:32:00,41.9,39.5,30.03,ENE,68,5.5,5.5,91,0.02,,SKC,0.55,VWS V13.01,2013-05-26 09:32:00,
2013-05-26 05:37:00,41.9,39.5,30.03,North,1,0.0,1.5,91,0.02,,SKC,0.55,VWS V13.01,2013-05-26 09:37:00,
2013-05-26 05:42:00,41.7,39.3,30.03,NNW,338,0.0,6.7,91,0.04,,SKC,0.57,VWS V13.01,2013-05-26 09:42:00,
2013-05-26 05:47:00,41.7,39.3,30.03,NE,46,5.1,5.1,91,0.04,,SKC,0.57,VWS V13.01,2013-05-26 09:47:00,
2013-05-26 05:52:00,41.9,39.5,30.03,NW,316,0.8,5.5,91,0.04,,SKC,0.57,VWS V13.01,2013-05-26 09:52:00,
2013-05-26 05:57:00,41.9,39.5,30.03,North,1,5.5,5.5,91,0.02,,SKC,0.57,VWS V13.01,2013-05-26 09:57:00,
2013-05-26 06:02:00,41.9,39.5,30.03,SE,136,0.0,0.0,91,0.02,,SKC,0.57,VWS V13.01,2013-05-26 10:02:00,
2013-05-26 06:07:00,41.9,39.5,30.03,NW,316,0.0,1.3,91,0.02,,SKC,0.57,VWS V13.01,2013-05-26 10:07:00,
2013-05-26 06:12:00,41.9,39.5,30.03,NE,46,0.0,2.2,91,0.02,,SKC,0.57,VWS V13.01,2013-05-26 10:12:00,
2013-05-26 06:17:00,41.9,39.5,30.03,NNW,338,1.7,1.7,91,0.02,,SKC,0.57,VWS V13.01,2013-05-26 10:17:00,
2013-05-26 06:22:00,41.9,39.5,30.03,NE,46,0.0,0.6,91,0.02,,SKC,0.57,VWS V13.01,2013-05-26 10:22:00,
2013-05-26 06:27:00,41.9,39.5,30.04,North,1,2.2,11.8,91,0.02,,SKC,0.57,VWS V13.01,2013-05-26 10:27:00,
2013-05-26 06:32:00,42.0,39.6,30.04,NNW,338,6.2,6.2,91,0.02,,SKC,0.57,VWS V13.01,2013-05-26 10:32:00,
2013-05-26 06:37:00,42.0,39.6,30.03,NW,316,10.7,10.7,91,0.02,,SKC,0.57,VWS V13.01,2013-05-26 10:37:00,
2013-05-26 06:42:00,42.0,39.6,30.03,WNW,294,0.4,3.8,91,0.02,,SKC,0.59,VWS V13.01,2013-05-26 10:42:00,
2013-05-26 06:47:00,42.2,39.8,30.04,NNW,338,1.3,1.3,91,0.02,,SKC,0.59,VWS V13.01,2013-05-26 10:47:00,
2013-05-26 06:52:00,42.2,39.8,30.04,North,1,4.4,4.4,91,0.02,,SKC,0.59,VWS V13.01,2013-05-26 10:52:00,
2013-05-26 06:57:00,42.4,40.0,30.04,SSE,158,9.6,9.6,91,0.02,,SKC,0.59,VWS V13.01,2013-05-26 10:57:00,
2013-05-26 07:02:00,42.4,39.7,30.04,WNW,294,6.0,6.0,90,0.02,,SKC,0.59,VWS V13.01,2013-05-26 11:02:00,
2013-05-26 07:07:00,42.4,39.7,30.05,North,1,9.1,9.1,90,0.02,,SKC,0.59,VWS V13.01,2013-05-26 11:07:00,
2013-05-26 07:12:00,42.6,39.9,30.05,NNE,24,4.6,4.6,90,0.02,,SKC,0.59,VWS V13.01,2013-05-26 11:12:00,
2013-05-26 07:17:00,42.6,39.9,30.05,WNW,294,7.1,7.1,90,0.02,,SKC,0.59,VWS V13.01,2013-05-26 11:17:00,
2013-05-26 07:22:00,42.6,39.9,30.05,NW,316,0.0,0.4,90,0.02,,SKC,0.59,VWS V13.01,2013-05-26 11:22:00,
2013-05-26 07:27:00,42.9,40.2,30.05,North,1,0.0,4.6,90,0.02,,SKC,0.59,VWS V13.01,2013-05-26 11:27:00,
2013-05-26 07:32:00,43.1,40.4,30.05,NW,316,5.5,5.5,90,0.02,,SKC,0.59,VWS V13.01,2013-05-26 11:32:00,
2013-05-26 07:37:00,43.1,40.1,30.06,NE,46,8.0,11.1,89,0.02,,SKC,0.59,VWS V13.01,2013-05-26 11:37:00,
2013-05-26 07:42:00,42.9,39.9,30.06,NW,316,2.0,2.0,89,0.00,,SKC,0.00,VWS V13.01,2013-05-26 11:42:00,
2013-05-26 07:47:00,42.9,39.6,30.06,NNW,338,6.7,6.7,88,0.00,,SKC,0.00,VWS V13.01,2013-05-26 11:47:00,
2013-05-26 07:52:00,42.8,39.8,30.06,NNE,24,3.1,3.1,89,0.00,,SKC,0.00,VWS V13.01,2013-05-26 11:52:00,
2013-05-26 07:57:00,42.9,39.9,30.06,NE,46,9.8,9.8,89,0.00,,SKC,0.00,VWS V13.01,2013-05-26 11:57:00,
2013-05-26 08:02:00,42.9,39.9,30.06,NNW,338,0.0,0.0,89,0.00,,SKC,0.00,VWS V13.01,2013-05-26 12:02:00,
2013-05-26 08:07:00,42.9,39.9,30.06,NW,316,2.9,2.9,89,0.00,,SKC,0.00,VWS V13.01,2013-05-26 12:07:00,
2013-05-26 08:12:00,42.9,39.6,30.06,North,1,4.6,4.6,88,0.00,,SKC,0.00,VWS V13.01,2013-05-26 12:12:00,
2013-05-26 08:17:00,42.9,39.6,30.07,NNW,338,2.0,2.0,88,0.00,,SKC,0.00,VWS V13.01,2013-05-26 12:17:00,
2013-05-26 08:22:00,42.9,39.6,30.07,NNW,338,6.4,6.4,88,0.00,,SKC,0.00,VWS V13.01,2013-05-26 12:22:00,
2013-05-26 08:27:00,42.6,39.3,30.07,North,1,2.4,2.4,88,0.00,,SKC,0.00,VWS V13.01,2013-05-26 12:27:00,
2013-05-26 08:32:00,42.6,39.3,30.08,North,1,4.4,4.4,88,0.00,,SKC,0.00,VWS V13.01,2013-05-26 12:32:00,
2013-05-26 08:37:00,42.6,39.3,30.08,NNW,338,6.9,6.9,88,0.00,,SKC,0.00,VWS V13.01,2013-05-26 12:37:00,
2013-05-26 08:42:00,42.6,39.3,30.08,West,271,0.4,0.4,88,0.00,,SKC,0.00,VWS V13.01,2013-05-26 12:42:00,
2013-05-26 08:47:00,42.6,39.3,30.08,North,1,5.1,5.1,88,0.00,,SKC,0.00,VWS V13.01,2013-05-26 12:47:00,
2013-05-26 08:53:00,42.4,39.1,30.08,ENE,68,0.0,0.0,88,0.02,,SKC,0.02,VWS V13.01,2013-05-26 12:53:00,
2013-05-26 08:58:00,42.4,38.8,30.08,NNW,338,2.6,2.6,87,0.02,,SKC,0.02,VWS V13.01,2013-05-26 12:58:00,
2013-05-26 09:03:00,42.4,39.1,30.08,NW,316,6.0,6.0,88,0.02,,SKC,0.02,VWS V13.01,2013-05-26 13:03:00,
2013-05-26 09:08:00,42.4,39.1,30.08,North,1,3.3,3.3,88,0.02,,SKC,0.02,VWS V13.01,2013-05-26 13:08:00,
2013-05-26 09:13:00,42.6,39.3,30.08,North,1,2.9,2.9,88,0.02,,SKC,0.02,VWS V13.01,2013-05-26 13:13:00,
2013-05-26 09:18:00,42.6,39.3,30.08,NW,316,5.8,5.8,88,0.02,,SKC,0.02,VWS V13.01,2013-05-26 13:18:00,
2013-05-26 09:23:00,42.6,39.3,30.09,NE,46,3.5,3.5,88,0.02,,SKC,0.02,VWS V13.01,2013-05-26 13:23:00,
2013-05-26 09:28:00,42.9,39.6,30.09,NW,316,5.5,5.5,88,0.02,,SKC,0.02,VWS V13.01,2013-05-26 13:28:00,
2013-05-26 09:33:00,42.9,39.3,30.09,NNE,24,0.0,0.0,87,0.02,,SKC,0.02,VWS V13.01,2013-05-26 13:33:00,
2013-05-26 09:38:00,43.1,39.5,30.09,WNW,294,2.0,2.0,87,0.02,,SKC,0.02,VWS V13.01,2013-05-26 13:38:00,
2013-05-26 09:43:00,43.5,39.9,30.09,NNW,338,0.6,0.6,87,0.02,,SKC,0.02,VWS V13.01,2013-05-26 13:43:00,
2013-05-26 09:48:00,43.8,40.2,30.09,NNW,338,0.0,10.2,87,0.00,,SKC,0.02,VWS V13.01,2013-05-26 13:48:00,
2013-05-26 09:53:00,44.0,40.4,30.10,NW,316,4.0,4.0,87,0.00,,SKC,0.02,VWS V13.01,2013-05-26 13:53:00,
2013-05-26 09:58:00,44.0,40.1,30.10,WNW,294,4.6,4.6,86,0.00,,SKC,0.02,VWS V13.01,2013-05-26 13:58:00,
2013-05-26 10:03:00,44.0,39.8,30.10,NE,46,0.0,3.1,85,0.00,,SKC,0.02,VWS V13.01,2013-05-26 14:03:00,
2013-05-26 10:08:00,44.0,40.1,30.09,NW,316,0.8,0.8,86,0.00,,SKC,0.02,VWS V13.01,2013-05-26 14:08:00,
2013-05-26 10:13:00,44.4,40.5,30.09,NW,316,5.5,5.5,86,0.00,,SKC,0.02,VWS V13.01,2013-05-26 14:13:00,
2013-05-26 10:18:00,45.1,40.9,30.09,NNW,338,5.5,5.5,85,0.00,,SKC,0.02,VWS V13.01,2013-05-26 14:18:00,
2013-05-26 10:23:00,45.1,40.2,30.09,North,1,0.0,0.0,83,0.00,,SKC,0.02,VWS V13.01,2013-05-26 14:23:00,
2013-05-26 10:28:00,45.3,40.5,30.10,NW,316,5.8,5.8,83,0.00,,SKC,0.02,VWS V13.01,2013-05-26 14:28:00,
2013-05-26 10:33:00,46.0,41.1,30.09,NNW,338,4.6,4.6,83,0.00,,SKC,0.02,VWS V13.01,2013-05-26 14:33:00,
2013-05-26 10:38:00,46.2,41.3,30.09,NW,316,8.2,8.2,83,0.00,,SKC,0.02,VWS V13.01,2013-05-26 14:38:00,
2013-05-26 10:43:00,46.2,40.7,30.09,WNW,294,6.0,6.0,81,0.00,,SKC,0.02,VWS V13.01,2013-05-26 14:43:00,
2013-05-26 10:48:00,46.2,40.7,30.09,North,1,6.2,6.2,81,0.00,,SKC,0.02,VWS V13.01,2013-05-26 14:48:00,
2013-05-26 10:53:00,46.2,40.7,30.09,NE,46,4.9,4.9,81,0.00,,SKC,0.02,VWS V13.01,2013-05-26 14:53:00,
2013-05-26 10:58:00,46.2,40.7,30.09,NNW,338,6.2,6.2,81,0.00,,SKC,0.02,VWS V13.01,2013-05-26 14:58:00,
2013-05-26 11:03:00,46.2,40.7,30.10,NNW,338,8.0,8.0,81,0.00,,SKC,0.02,VWS V13.01,2013-05-26 15:03:00,
2013-05-26 11:08:00,46.2,40.7,30.10,North,1,7.1,7.1,81,0.00,,SKC,0.02,VWS V13.01,2013-05-26 15:08:00,
2013-05-26 11:13:00,46.2,40.4,30.10,North,1,1.7,1.7,80,0.00,,SKC,0.02,VWS V13.01,2013-05-26 15:13:00,
2013-05-26 11:19:00,46.9,41.7,30.10,NNW,338,2.9,2.9,82,0.00,,SKC,0.02,VWS V13.01,2013-05-26 15:19:00,
2013-05-26 11:24:00,47.4,42.2,30.10,NNE,24,2.9,2.9,82,0.00,,SKC,0.02,VWS V13.01,2013-05-26 15:24:00,
2013-05-26 11:29:00,47.6,41.8,30.10,NW,316,1.7,1.7,80,0.00,,SKC,0.02,VWS V13.01,2013-05-26 15:29:00,
2013-05-26 11:34:00,47.1,41.3,30.10,NNW,338,6.2,6.2,80,0.00,,SKC,0.02,VWS V13.01,2013-05-26 15:34:00,
2013-05-26 11:39:00,47.1,41.3,30.10,NW,316,6.0,6.0,80,0.00,,SKC,0.02,VWS V13.01,2013-05-26 15:39:00,
2013-05-26 11:44:00,47.3,41.1,30.11,NNW,338,4.9,4.9,79,0.00,,SKC,0.02,VWS V13.01,2013-05-26 15:44:00,
2013-05-26 11:49:00,47.1,40.9,30.11,NE,46,6.9,6.9,79,0.00,,SKC,0.02,VWS V13.01,2013-05-26 15:49:00,
2013-05-26 11:54:00,46.5,40.7,30.11,North,1,6.0,6.0,80,0.00,,SKC,0.02,VWS V13.01,2013-05-26 15:54:00,
2013-05-26 11:59:00,46.7,41.5,30.12,NNW,338,6.9,6.9,82,0.00,,SKC,0.02,VWS V13.01,2013-05-26 15:59:00,
2013-05-26 12:04:00,47.1,41.3,30.12,NW,316,6.0,6.0,80,0.00,,SKC,0.02,VWS V13.01,2013-05-26 16:04:00,
2013-05-26 12:09:00,47.1,41.3,30.12,NW,316,1.1,1.1,80,0.00,,SKC,0.02,VWS V13.01,2013-05-26 16:09:00,
2013-05-26 12:14:00,47.1,40.9,30.12,ENE,68,5.3,5.3,79,0.00,,SKC,0.02,VWS V13.01,2013-05-26 16:14:00,
2013-05-26 12:19:00,47.3,41.1,30.12,North,1,2.9,2.9,79,0.00,,SKC,0.02,VWS V13.01,2013-05-26 16:19:00,
2013-05-26 12:24:00,47.4,41.2,30.13,NE,46,6.9,7.1,79,0.00,,SKC,0.02,VWS V13.01,2013-05-26 16:24:00,
2013-05-26 12:29:00,46.9,40.7,30.13,NE,46,6.4,6.7,79,0.00,,SKC,0.02,VWS V13.01,2013-05-26 16:29:00,
2013-05-26 12:34:00,46.9,41.1,30.13,NW,316,1.5,1.5,80,0.00,,SKC,0.02,VWS V13.01,2013-05-26 16:34:00,
2013-05-26 12:39:00,47.4,41.5,30.13,NNW,338,0.0,4.6,80,0.00,,SKC,0.02,VWS V13.01,2013-05-26 16:39:00,
2013-05-26 12:44:00,47.6,41.1,30.13,WNW,294,4.0,4.0,78,0.00,,SKC,0.02,VWS V13.01,2013-05-26 16:44:00,
2013-05-26 12:49:00,47.1,41.3,30.14,NNW,338,11.4,11.4,80,0.00,,SKC,0.02,VWS V13.01,2013-05-26 16:49:00,
2013-05-26 12:54:00,47.1,41.3,30.14,ENE,68,1.1,1.7,80,0.00,,SKC,0.02,VWS V13.01,2013-05-26 16:54:00,
2013-05-26 12:59:00,47.6,41.8,30.14,East,91,2.4,5.5,80,0.00,,SKC,0.02,VWS V13.01,2013-05-26 16:59:00,
2013-05-26 13:04:00,47.8,41.6,30.13,NNW,338,1.7,1.7,79,0.00,,SKC,0.02,VWS V13.01,2013-05-26 17:04:00,
2013-05-26 13:09:00,48.5,41.6,30.14,NNE,24,0.0,5.3,77,0.00,,SKC,0.02,VWS V13.01,2013-05-26 17:09:00,
2013-05-26 13:14:00,48.9,41.0,30.14,North,1,5.1,5.1,74,0.00,,SKC,0.02,VWS V13.01,2013-05-26 17:14:00,
2013-05-26 13:19:00,49.1,41.2,30.14,North,1,2.6,2.6,74,0.00,,SKC,0.02,VWS V13.01,2013-05-26 17:19:00,
2013-05-26 13:24:00,49.2,41.6,30.14,NW,316,6.7,7.6,75,0.00,,SKC,0.02,VWS V13.01,2013-05-26 17:24:00,
2013-05-26 13:29:00,49.1,41.5,30.13,NNW,338,10.9,10.9,75,0.00,,SKC,0.02,VWS V13.01,2013-05-26 17:29:00,
2013-05-26 13:34:00,48.9,41.7,30.14,North,1,3.3,3.3,76,0.00,,SKC,0.02,VWS V13.01,2013-05-26 17:34:00,
2013-05-26 13:39:00,48.5,42.0,30.14,North,1,3.5,3.5,78,0.00,,SKC,0.02,VWS V13.01,2013-05-26 17:39:00,
2013-05-26 13:44:00,47.8,42.3,30.14,NNW,338,5.8,5.8,81,0.00,,SKC,0.02,VWS V13.01,2013-05-26 17:44:00,
2013-05-26 13:49:00,47.3,41.8,30.14,NW,316,3.3,3.3,81,0.00,,SKC,0.02,VWS V13.01,2013-05-26 17:49:00,
2013-05-26 13:54:00,46.5,41.0,30.14,NW,316,4.2,7.1,81,0.02,,SKC,0.04,VWS V13.01,2013-05-26 17:54:00,
2013-05-26 13:59:00,46.0,41.1,30.14,North,1,3.1,3.1,83,0.02,,SKC,0.04,VWS V13.01,2013-05-26 17:59:00,
2013-05-26 14:04:00,46.2,41.6,30.14,WNW,294,0.0,0.0,84,0.02,,SKC,0.04,VWS V13.01,2013-05-26 18:04:00,
2013-05-26 14:09:00,46.9,42.6,30.14,NNW,338,1.5,3.1,85,0.02,,SKC,0.04,VWS V13.01,2013-05-26 18:09:00,
2013-05-26 14:14:00,47.8,43.5,30.14,ESE,114,0.0,0.0,85,0.02,,SKC,0.04,VWS V13.01,2013-05-26 18:14:00,
2013-05-26 14:19:00,48.3,43.1,30.15,NW,316,3.8,3.8,82,0.02,,SKC,0.04,VWS V13.01,2013-05-26 18:19:00,
2013-05-26 14:24:00,48.3,42.4,30.15,NNW,338,0.0,9.6,80,0.02,,SKC,0.04,VWS V13.01,2013-05-26 18:24:00,
2013-05-26 14:29:00,48.3,42.1,30.15,ENE,68,1.7,1.7,79,0.02,,SKC,0.04,VWS V13.01,2013-05-26 18:29:00,
2013-05-26 14:34:00,48.2,42.3,30.15,WNW,294,0.8,0.8,80,0.02,,SKC,0.04,VWS V13.01,2013-05-26 18:34:00,
2013-05-26 14:39:00,48.2,42.7,30.16,NNW,338,1.1,1.1,81,0.02,,SKC,0.04,VWS V13.01,2013-05-26 18:39:00,
2013-05-26 14:44:00,48.0,42.5,30.16,NW,316,11.4,11.4,81,0.02,,SKC,0.04,VWS V13.01,2013-05-26 18:44:00,
2013-05-26 14:49:00,47.6,42.1,30.16,NNW,338,3.8,3.8,81,0.00,,SKC,0.04,VWS V13.01,2013-05-26 18:49:00,
2013-05-26 14:54:00,47.3,42.1,30.16,NE,46,8.0,8.0,82,0.02,,SKC,0.06,VWS V13.01,2013-05-26 18:54:00,
2013-05-26 14:59:00,46.9,42.0,30.16,NNW,338,9.6,9.6,83,0.02,,SKC,0.06,VWS V13.01,2013-05-26 18:59:00,
2013-05-26 15:04:00,46.5,41.3,30.17,NW,316,2.4,2.4,82,0.02,,SKC,0.06,VWS V13.01,2013-05-26 19:04:00,
2013-05-26 15:09:00,46.2,41.3,30.17,ENE,68,4.2,5.5,83,0.02,,SKC,0.06,VWS V13.01,2013-05-26 19:09:00,
2013-05-26 15:14:00,46.0,41.1,30.18,NW,316,6.7,6.7,83,0.02,,SKC,0.06,VWS V13.01,2013-05-26 19:14:00,
2013-05-26 15:19:00,46.0,41.1,30.18,North,1,0.0,0.0,83,0.02,,SKC,0.06,VWS V13.01,2013-05-26 19:19:00,
2013-05-26 15:24:00,46.0,41.4,30.18,NNW,338,2.4,3.1,84,0.02,,SKC,0.06,VWS V13.01,2013-05-26 19:24:00,
2013-05-26 15:29:00,45.6,41.0,30.18,North,1,2.2,5.1,84,0.02,,SKC,0.06,VWS V13.01,2013-05-26 19:29:00,
2013-05-26 15:34:00,45.8,41.2,30.19,NNW,338,7.1,7.1,84,0.02,,SKC,0.06,VWS V13.01,2013-05-26 19:34:00,
2013-05-26 15:39:00,46.0,41.4,30.19,NW,316,1.5,1.5,84,0.02,,SKC,0.06,VWS V13.01,2013-05-26 19:39:00,
2013-05-26 15:44:00,46.0,41.4,30.19,NNE,24,2.0,2.0,84,0.02,,SKC,0.06,VWS V13.01,2013-05-26 19:44:00,
2013-05-26 15:49:00,46.2,41.6,30.19,NE,46,1.1,1.1,84,0.00,,SKC,0.06,VWS V13.01,2013-05-26 19:49:00,
2013-05-26 15:54:00,46.2,41.6,30.19,NNW,338,0.0,0.0,84,0.00,,SKC,0.06,VWS V13.01,2013-05-26 19:54:00,
2013-05-26 15:59:00,46.5,42.2,30.19,North,1,0.6,2.2,85,0.00,,SKC,0.06,VWS V13.01,2013-05-26 19:59:00,
2013-05-26 16:04:00,46.5,41.9,30.18,NE,46,4.9,4.9,84,0.00,,SKC,0.06,VWS V13.01,2013-05-26 20:04:00,
2013-05-26 16:09:00,46.7,42.1,30.19,NNE,24,6.0,6.0,84,0.00,,SKC,0.06,VWS V13.01,2013-05-26 20:09:00,
2013-05-26 16:14:00,46.9,42.3,30.19,NNW,338,6.4,6.4,84,0.00,,SKC,0.06,VWS V13.01,2013-05-26 20:14:00,
2013-05-26 16:19:00,47.1,42.5,30.19,NNE,24,0.0,0.0,84,0.00,,SKC,0.06,VWS V13.01,2013-05-26 20:19:00,
2013-05-26 16:24:00,47.1,42.5,30.19,NNW,338,1.7,1.7,84,0.00,,SKC,0.06,VWS V13.01,2013-05-26 20:24:00,
2013-05-26 16:29:00,47.1,42.5,30.20,NNW,338,1.5,1.5,84,0.00,,SKC,0.06,VWS V13.01,2013-05-26 20:29:00,
2013-05-26 16:34:00,47.1,42.5,30.20,NE,46,0.0,0.0,84,0.00,,SKC,0.06,VWS V13.01,2013-05-26 20:34:00,
2013-05-26 16:39:00,47.1,42.8,30.20,North,1,0.0,0.0,85,0.00,,SKC,0.06,VWS V13.01,2013-05-26 20:39:00,
2013-05-26 16:44:00,47.1,42.8,30.20,NNW,338,0.0,0.0,85,0.02,,SKC,0.08,VWS V13.01,2013-05-26 20:44:00,
2013-05-26 16:49:00,46.9,42.6,30.20,NW,316,2.4,2.4,85,0.02,,SKC,0.08,VWS V13.01,2013-05-26 20:49:00,
2013-05-26 16:54:00,46.9,42.6,30.21,NE,46,0.0,0.0,85,0.04,,SKC,0.10,VWS V13.01,2013-05-26 20:54:00,
2013-05-26 16:59:00,46.7,42.7,30.21,NNW,338,5.8,5.8,86,0.04,,SKC,0.10,VWS V13.01,2013-05-26 20:59:00,
2013-05-26 17:04:00,46.9,42.9,30.21,ENE,68,0.0,0.0,86,0.04,,SKC,0.10,VWS V13.01,2013-05-26 21:04:00,
2013-05-26 17:09:00,46.9,42.9,30.21,NNW,338,0.0,0.0,86,0.04,,SKC,0.10,VWS V13.01,2013-05-26 21:09:00,
2013-05-26 17:14:00,47.1,43.1,30.21,NNW,338,0.0,0.0,86,0.04,,SKC,0.10,VWS V13.01,2013-05-26 21:14:00,
2013-05-26 17:19:00,47.3,43.3,30.22,NNW,338,0.0,0.0,86,0.04,,SKC,0.10,VWS V13.01,2013-05-26 21:19:00,
2013-05-26 17:25:00,47.3,43.3,30.22,North,1,0.0,0.0,86,0.06,,SKC,0.12,VWS V13.01,2013-05-26 21:25:00,
2013-05-26 17:30:00,47.1,42.8,30.22,NNW,338,2.6,2.6,85,0.06,,SKC,0.12,VWS V13.01,2013-05-26 21:30:00,
2013-05-26 17:34:00,47.1,43.1,30.22,NNW,338,0.0,0.0,86,0.06,,SKC,0.12,VWS V13.01,2013-05-26 21:34:00,
2013-05-26 17:40:00,46.9,42.9,30.22,NNW,338,0.0,0.0,86,0.04,,SKC,0.12,VWS V13.01,2013-05-26 21:40:00,
2013-05-26 17:45:00,46.9,42.9,30.22,NNW,338,1.5,1.5,86,0.04,,SKC,0.12,VWS V13.01,2013-05-26 21:45:00,
2013-05-26 17:50:00,46.9,42.9,30.22,NNW,338,2.6,2.6,86,0.02,,SKC,0.12,VWS V13.01,2013-05-26 21:50:00,
2013-05-26 17:55:00,46.9,42.6,30.22,North,1,0.0,0.0,85,0.02,,SKC,0.12,VWS V13.01,2013-05-26 21:55:00,
2013-05-26 18:00:00,47.1,43.1,30.22,NNW,338,0.0,0.0,86,0.02,,SKC,0.12,VWS V13.01,2013-05-26 22:00:00,
2013-05-26 18:05:00,47.3,43.3,30.22,NE,46,0.0,0.0,86,0.02,,SKC,0.12,VWS V13.01,2013-05-26 22:05:00,
2013-05-26 18:10:00,47.8,43.8,30.22,NE,46,0.0,0.0,86,0.02,,SKC,0.12,VWS V13.01,2013-05-26 22:10:00,
2013-05-26 18:15:00,48.0,44.0,30.22,NNE,24,0.0,0.0,86,0.02,,SKC,0.12,VWS V13.01,2013-05-26 22:15:00,
2013-05-26 18:20:00,48.3,44.0,30.22,NNE,24,0.0,0.0,85,0.02,,SKC,0.12,VWS V13.01,2013-05-26 22:20:00,
2013-05-26 18:25:00,48.7,44.4,30.22,NW,316,0.0,0.0,85,0.00,,SKC,0.12,VWS V13.01,2013-05-26 22:25:00,
2013-05-26 18:30:00,48.7,44.4,30.22,NW,316,0.0,0.0,85,0.00,,SKC,0.12,VWS V13.01,2013-05-26 22:30:00,
2013-05-26 18:35:00,48.9,44.6,30.22,NW,316,0.0,0.0,85,0.00,,SKC,0.12,VWS V13.01,2013-05-26 22:35:00,
2013-05-26 18:40:00,49.2,44.9,30.23,NNE,24,0.6,0.6,85,0.00,,SKC,0.12,VWS V13.01,2013-05-26 22:40:00,
2013-05-26 18:45:00,49.8,45.5,30.23,ENE,68,0.0,0.0,85,0.00,,SKC,0.12,VWS V13.01,2013-05-26 22:45:00,
2013-05-26 18:50:00,50.5,45.8,30.23,NE,46,0.0,0.0,84,0.00,,SKC,0.12,VWS V13.01,2013-05-26 22:50:00,
2013-05-26 18:55:00,51.0,46.3,30.23,North,1,0.0,0.0,84,0.00,,SKC,0.12,VWS V13.01,2013-05-26 22:55:00,
2013-05-26 19:00:00,51.6,46.6,30.23,North,1,0.0,0.0,83,0.00,,SKC,0.12,VWS V13.01,2013-05-26 23:00:00,
2013-05-26 19:05:00,51.6,46.6,30.23,North,1,0.0,0.0,83,0.00,,SKC,0.12,VWS V13.01,2013-05-26 23:05:00,
2013-05-26 19:10:00,51.2,45.9,30.23,North,1,0.0,0.0,82,0.00,,SKC,0.12,VWS V13.01,2013-05-26 23:10:00,
2013-05-26 19:15:00,50.9,45.6,30.23,North,1,0.0,0.0,82,0.00,,SKC,0.12,VWS V13.01,2013-05-26 23:15:00,
2013-05-26 19:20:00,51.6,46.6,30.23,North,1,0.0,0.0,83,0.00,,SKC,0.12,VWS V13.01,2013-05-26 23:20:00,
2013-05-26 19:25:00,52.1,47.1,30.23,North,1,0.0,0.0,83,0.00,,SKC,0.12,VWS V13.01,2013-05-26 23:25:00,
2013-05-26 19:30:00,52.3,47.0,30.23,North,1,0.0,0.0,82,0.00,,SKC,0.12,VWS V13.01,2013-05-26 23:30:00,
2013-05-26 19:35:00,51.6,46.3,30.23,North,1,0.0,0.0,82,0.00,,SKC,0.12,VWS V13.01,2013-05-26 23:35:00,
2013-05-26 19:40:00,51.2,45.9,30.23,North,1,0.0,0.0,82,0.00,,SKC,0.12,VWS V13.01,2013-05-26 23:40:00,
2013-05-26 19:45:00,50.7,45.4,30.23,North,1,0.0,0.0,82,0.00,,SKC,0.12,VWS V13.01,2013-05-26 23:45:00,
2013-05-26 19:50:00,49.8,44.5,30.23,North,1,0.0,0.0,82,0.00,,SKC,0.12,VWS V13.01,2013-05-26 23:50:00,
2013-05-26 19:55:00,49.6,44.3,30.23,North,1,0.0,0.0,82,0.00,,SKC,0.12,VWS V13.01,2013-05-26 23:55:00,
2013-05-26 20:00:00,49.2,44.0,30.22,North,1,0.0,0.0,82,0.00,,SKC,0.12,VWS V13.01,2013-05-27 00:00:00,
2013-05-26 20:05:00,48.7,43.8,30.22,North,1,0.0,0.0,83,0.00,,SKC,0.12,VWS V13.01,2013-05-27 00:05:00,
2013-05-26 20:10:00,48.2,43.3,30.22,North,1,0.0,0.0,83,0.00,,SKC,0.12,VWS V13.01,2013-05-27 00:10:00,
2013-05-26 20:15:00,48.0,43.1,30.22,North,1,0.0,0.0,83,0.00,,SKC,0.12,VWS V13.01,2013-05-27 00:15:00,
2013-05-26 20:20:00,47.3,42.7,30.22,North,1,0.0,0.0,84,0.00,,SKC,0.12,VWS V13.01,2013-05-27 00:20:00,
2013-05-26 20:25:00,47.1,42.2,30.23,North,1,0.0,0.0,83,0.00,,SKC,0.12,VWS V13.01,2013-05-27 00:25:00,
2013-05-26 20:30:00,46.7,41.8,30.22,North,1,0.0,0.0,83,0.00,,SKC,0.12,VWS V13.01,2013-05-27 00:30:00,
2013-05-26 20:35:00,46.2,41.6,30.22,North,1,0.0,0.0,84,0.00,,SKC,0.12,VWS V13.01,2013-05-27 00:35:00,
2013-05-26 20:40:00,46.0,41.4,30.22,North,1,0.0,0.0,84,0.00,,SKC,0.12,VWS V13.01,2013-05-27 00:40:00,
2013-05-26 20:45:00,45.6,41.0,30.23,North,1,0.0,0.0,84,0.00,,SKC,0.12,VWS V13.01,2013-05-27 00:45:00,
2013-05-26 20:50:00,45.1,40.6,30.23,North,1,0.0,0.0,84,0.00,,SKC,0.12,VWS V13.01,2013-05-27 00:50:00,
2013-05-26 20:55:00,44.9,40.4,30.23,North,1,0.0,0.0,84,0.00,,SKC,0.12,VWS V13.01,2013-05-27 00:55:00,
2013-05-26 21:00:00,44.4,40.2,30.23,North,1,0.0,0.0,85,0.00,,SKC,0.12,VWS V13.01,2013-05-27 01:00:00,
2013-05-26 21:05:00,44.0,39.8,30.23,North,1,0.0,0.0,85,0.00,,SKC,0.12,VWS V13.01,2013-05-27 01:05:00,
2013-05-26 21:10:00,43.7,39.5,30.23,North,1,0.0,0.0,85,0.00,,SKC,0.12,VWS V13.01,2013-05-27 01:10:00,
2013-05-26 21:15:00,43.5,39.3,30.23,North,1,0.0,0.0,85,0.00,,SKC,0.12,VWS V13.01,2013-05-27 01:15:00,
2013-05-26 21:20:00,43.1,38.9,30.23,North,1,0.0,0.0,85,0.00,,SKC,0.12,VWS V13.01,2013-05-27 01:20:00,
2013-05-26 21:25:00,42.9,38.7,30.23,North,1,0.0,0.0,85,0.00,,SKC,0.12,VWS V13.01,2013-05-27 01:25:00,
2013-05-26 21:30:00,42.6,38.4,30.23,North,1,0.0,0.0,85,0.00,,SKC,0.12,VWS V13.01,2013-05-27 01:30:00,
2013-05-26 21:35:00,42.4,38.2,30.23,North,1,0.0,0.0,85,0.00,,SKC,0.12,VWS V13.01,2013-05-27 01:35:00,
2013-05-26 21:40:00,42.0,37.8,30.23,North,1,0.0,0.0,85,0.00,,SKC,0.12,VWS V13.01,2013-05-27 01:40:00,
2013-05-26 21:45:00,41.9,37.7,30.23,North,1,0.0,0.0,85,0.00,,SKC,0.12,VWS V13.01,2013-05-27 01:45:00,
2013-05-26 21:50:00,41.5,37.6,30.24,North,1,0.0,0.0,86,0.00,,SKC,0.12,VWS V13.01,2013-05-27 01:50:00,
2013-05-26 21:55:00,41.5,37.6,30.24,North,1,0.0,0.0,86,0.00,,SKC,0.12,VWS V13.01,2013-05-27 01:55:00,
2013-05-26 22:00:00,41.1,37.2,30.24,North,1,0.0,0.0,86,0.00,,SKC,0.12,VWS V13.01,2013-05-27 02:00:00,
2013-05-26 22:05:00,41.0,37.1,30.24,North,1,0.0,0.0,86,0.00,,SKC,0.12,VWS V13.01,2013-05-27 02:05:00,
2013-05-26 22:10:00,40.8,36.9,30.24,North,1,0.0,0.0,86,0.00,,SKC,0.12,VWS V13.01,2013-05-27 02:10:00,
2013-05-26 22:15:00,40.6,36.8,30.24,North,1,0.0,0.0,86,0.00,,SKC,0.12,VWS V13.01,2013-05-27 02:15:00,
2013-05-26 22:20:00,40.2,36.3,30.23,North,1,0.0,0.0,86,0.00,,SKC,0.12,VWS V13.01,2013-05-27 02:20:00,
2013-05-26 22:25:00,40.1,36.3,30.24,North,1,0.0,0.0,86,0.00,,SKC,0.12,VWS V13.01,2013-05-27 02:25:00,
2013-05-26 22:30:00,39.9,36.1,30.24,North,1,0.0,0.0,86,0.00,,SKC,0.12,VWS V13.01,2013-05-27 02:30:00,
2013-05-26 22:35:00,39.5,35.7,30.24,North,1,0.0,0.0,86,0.00,,SKC,0.12,VWS V13.01,2013-05-27 02:35:00,
2013-05-26 22:40:00,39.3,35.5,30.24,North,1,0.0,0.0,86,0.00,,SKC,0.12,VWS V13.01,2013-05-27 02:40:00,
2013-05-26 22:45:00,39.0,35.2,30.24,North,1,0.0,0.0,86,0.00,,SKC,0.12,VWS V13.01,2013-05-27 02:45:00,
2013-05-26 22:50:00,38.8,35.0,30.24,North,1,0.0,0.0,86,0.00,,SKC,0.12,VWS V13.01,2013-05-27 02:50:00,
2013-05-26 22:55:00,38.4,34.6,30.24,North,1,0.0,0.0,86,0.00,,SKC,0.12,VWS V13.01,2013-05-27 02:55:00,
2013-05-26 23:00:00,38.4,34.9,30.24,North,1,0.0,0.0,87,0.00,,SKC,0.12,VWS V13.01,2013-05-27 03:00:00,
2013-05-26 23:05:00,38.3,34.8,30.24,North,1,0.0,0.0,87,0.00,,SKC,0.12,VWS V13.01,2013-05-27 03:05:00,
2013-05-26 23:10:00,38.3,34.8,30.24,North,1,0.0,0.0,87,0.00,,SKC,0.12,VWS V13.01,2013-05-27 03:10:00,
2013-05-26 23:15:00,38.1,34.6,30.24,North,1,0.0,0.0,87,0.00,,SKC,0.12,VWS V13.01,2013-05-27 03:15:00,
2013-05-26 23:20:00,38.1,34.6,30.24,North,1,0.0,0.0,87,0.00,,SKC,0.12,VWS V13.01,2013-05-27 03:20:00,
2013-05-26 23:25:00,37.9,34.4,30.24,North,1,0.0,0.0,87,0.00,,SKC,0.12,VWS V13.01,2013-05-27 03:25:00,
2013-05-26 23:30:00,37.9,34.4,30.23,North,1,0.0,0.0,87,0.00,,SKC,0.12,VWS V13.01,2013-05-27 03:30:00,
2013-05-26 23:35:00,37.7,34.2,30.23,North,1,0.0,0.0,87,0.00,,SKC,0.12,VWS V13.01,2013-05-27 03:35:00,
2013-05-26 23:40:00,37.5,34.0,30.23,North,1,0.0,0.0,87,0.00,,SKC,0.12,VWS V13.01,2013-05-27 03:40:00,
2013-05-26 23:45:00,37.5,34.0,30.24,North,1,0.0,0.0,87,0.00,,SKC,0.12,VWS V13.01,2013-05-27 03:45:00,
2013-05-26 23:50:00,37.5,34.0,30.24,North,1,0.0,0.0,87,0.00,,SKC,0.12,VWS V13.01,2013-05-27 03:50:00,
2013-05-26 23:55:00,37.4,33.9,30.24,North,1,0.0,0.0,87,0.00,,SKC,0.12,VWS V13.01,2013-05-27 03:55:00,